Terminal Aerodrome Forecast
Issued by NWS

Current Version | Previous Version | Text Only | Print | Product List | Glossary On
Versions: 1 2 3 4 5 6 7 8 9 10 11 12 13 14 15 16
000
FTUS42 KMLB 050535
TAFSFB
TAF
KSFB 050535Z 0506/0606 00000KT P6SM FEW250
     FM051400 VRB03KT P6SM FEW040 SCT250
     FM051900 23006KT P6SM VCTS SCT050CB SCT250
     FM060000 17005KT P6SM SCT070 BKN250=

USA.gov is the U.S. government's official web portal to all federal, state and local government web resources and services.